KCOS/COS METAR and TAF weather

Enter ICAO airport designator
Station Type Date Time Source
KCOS METAR 2018/10/19 14:54 UTC NOAA

KCOS 191454Z 33011KT 10SM FEW090 FEW150 12/M02 A3035 RMK AO2 SLP250 T01221022 53025


Station Type Date Time Source
KCOS Decoded METAR 2018/10/19 14:54 UTC NOAA

COLORADO SPRINGS MUNI, CO, United States (KCOS) 38-49N 104-43W 1856M
Oct 19, 2018 - 10:54 AM EDT / 2018.10.19 1454 UTC
Wind: from the NNW (330 degrees) at 13 MPH (11 KT):0
Visibility: 10 mile(s):0
Sky conditions: mostly clear
Temperature: 54.0 F (12.2 C)
Dew Point: 28.0 F (-2.2 C)
Relative Humidity: 36%
Pressure (altimeter): 30.35 in. Hg (1027 hPa)
Pressure tendency: 0.07 inches (2.5 hPa) higher than three hours ago
ob: KCOS 191454Z 33011KT 10SM FEW090 FEW150 12/M02 A3035 RMK AO2 SLP250 T01221022 53025
cycle: 15

Station Type Date Time Source
KCOS TAF 2018/10/19 12:45 UTC NOAA

TAF KCOS 191143Z 1912/2012 32008KT P6SM FEW110
FM191600 35015G25KT P6SM SCT070
FM192100 03010G20KT P6SM SCT070
FM200300 VRB06KT P6SM SKC


Example: see airport list